Time;durP1;ratioP1;P1;durP2;ratioP2;P2;SDS_P1;SDS_P2;PMS_P1;PMS_P2;Temp;Humidity;BMP_temperature;BMP_pressure;BME280_temperature;BME280_humidity;BME280_pressure;Samples;Min_cycle;Max_cycle;Signal;HPM_P1;HPM_P2
2021/06/02 00:02:03;;;;;;;6.40;5.60;;;15.20;78.10;;;;;;5028540;28;20032;-65
2021/06/02 00:04:34;;;;;;;8.50;5.93;;;15.20;78.20;;;;;;5024026;28;20195;-65
2021/06/02 00:07:04;;;;;;;7.97;5.85;;;15.20;77.90;;;;;;5020611;28;20454;-66
2021/06/02 00:09:30;;;;;;;7.07;5.43;;;15.20;78.10;;;;;;5020810;28;20037;-66
2021/06/02 00:12:00;;;;;;;7.55;6.03;;;15.20;78.10;;;;;;5038249;28;20485;-66
2021/06/02 00:14:27;;;;;;;7.93;6.07;;;15.20;77.90;;;;;;5021414;28;20041;-66
2021/06/02 00:16:55;;;;;;;7.53;6.10;;;15.10;77.70;;;;;;5034907;28;20041;-66
2021/06/02 00:19:21;;;;;;;7.50;6.07;;;15.10;78.10;;;;;;5029060;28;20041;-66
2021/06/02 00:21:48;;;;;;;9.40;6.10;;;15.10;78.80;;;;;;5037578;28;20038;-66
2021/06/02 00:24:14;;;;;;;11.85;5.95;;;15.00;78.70;;;;;;5023415;28;20042;-66
2021/06/02 00:26:41;;;;;;;7.93;5.75;;;15.00;78.90;;;;;;5027203;28;20043;-66
2021/06/02 00:29:09;;;;;;;7.82;5.72;;;15.00;79.00;;;;;;5032207;28;20033;-66
2021/06/02 00:31:39;;;;;;;7.22;5.90;;;14.90;78.60;;;;;;5027612;28;20037;-66
2021/06/02 00:34:06;;;;;;;12.18;5.72;;;14.90;78.90;;;;;;5027955;28;20037;-66
2021/06/02 00:36:32;;;;;;;8.73;5.13;;;14.90;79.20;;;;;;5028277;28;20051;-66
2021/06/02 00:39:00;;;;;;;8.18;5.70;;;14.90;79.30;;;;;;5029226;28;20033;-66
2021/06/02 00:41:29;;;;;;;6.40;5.10;;;14.80;79.80;;;;;;5019071;28;20508;-66
2021/06/02 00:43:56;;;;;;;8.57;5.60;;;14.80;79.70;;;;;;5031416;28;20045;-66
2021/06/02 00:46:26;;;;;;;5.82;5.03;;;14.80;80.00;;;;;;5023197;28;20536;-66
2021/06/02 00:48:52;;;;;;;5.70;5.05;;;14.70;80.10;;;;;;5027772;28;20148;-66
2021/06/02 00:51:22;;;;;;;5.13;4.63;;;14.70;80.30;;;;;;5023892;28;20066;-66
2021/06/02 00:53:53;;;;;;;6.57;5.53;;;14.60;80.20;;;;;;5027632;28;20112;-65
2021/06/02 00:56:22;;;;;;;7.60;5.18;;;14.60;80.00;;;;;;5021927;28;20046;-65
2021/06/02 00:58:51;;;;;;;7.47;5.53;;;14.50;80.00;;;;;;5028599;28;20135;-65
2021/06/02 01:01:17;;;;;;;6.47;5.47;;;14.50;80.20;;;;;;5021890;28;20482;-65
2021/06/02 01:03:44;;;;;;;8.25;6.25;;;14.50;80.30;;;;;;5039888;28;20038;-65
2021/06/02 01:06:10;;;;;;;8.43;6.65;;;14.40;80.80;;;;;;5019354;28;20302;-65
2021/06/02 01:08:37;;;;;;;9.55;7.03;;;14.30;81.00;;;;;;5031416;28;20041;-65
2021/06/02 01:11:04;;;;;;;9.60;6.75;;;14.30;80.80;;;;;;5022117;28;20045;-65
2021/06/02 01:13:34;;;;;;;9.57;6.93;;;14.30;81.30;;;;;;5027229;28;20472;-65
2021/06/02 01:15:59;;;;;;;8.30;6.13;;;14.20;81.50;;;;;;5015251;28;20049;-65
2021/06/02 01:18:25;;;;;;;9.88;6.03;;;14.20;82.00;;;;;;5028747;28;20096;-66
2021/06/02 01:20:52;;;;;;;8.73;5.80;;;14.10;82.40;;;;;;5017140;28;20076;-65
2021/06/02 01:23:18;;;;;;;7.18;6.43;;;14.10;82.50;;;;;;5022529;28;20128;-65
2021/06/02 01:25:44;;;;;;;7.15;6.45;;;14.00;83.00;;;;;;5027461;28;20046;-65
2021/06/02 01:28:11;;;;;;;7.75;6.00;;;14.00;83.50;;;;;;5020985;28;20057;-65
2021/06/02 01:30:37;;;;;;;7.07;5.45;;;13.90;83.90;;;;;;5029053;28;20042;-65
2021/06/02 01:33:16;;;;;;;9.35;6.45;;;13.90;83.80;;;;;;5022846;28;20099;-65
2021/06/02 01:36:04;;;;;;;9.07;6.28;;;13.90;84.20;;;;;;5028931;28;20464;-65
2021/06/02 01:39:03;;;;;;;9.98;5.95;;;13.80;84.40;;;;;;5020365;28;20026;-65
2021/06/02 01:41:59;;;;;;;7.00;5.95;;;13.70;84.50;;;;;;5031547;28;20444;-65
2021/06/02 01:45:10;;;;;;;8.30;5.85;;;13.70;83.90;;;;;;5033848;28;20038;-65
2021/06/02 01:48:00;;;;;;;7.13;5.97;;;13.60;83.50;;;;;;5026416;28;20038;-65
2021/06/02 01:50:41;;;;;;;7.88;5.70;;;13.60;84.30;;;;;;5030779;28;20505;-65
2021/06/02 01:53:25;;;;;;;7.03;5.50;;;13.50;84.00;;;;;;5018482;28;20128;-65
2021/06/02 01:56:21;;;;;;;8.15;5.85;;;13.50;84.30;;;;;;5032621;28;20489;-65
2021/06/02 01:58:52;;;;;;;7.68;5.72;;;13.40;84.30;;;;;;5026293;28;20070;-65
2021/06/02 02:02:16;;;;;;;7.68;5.68;;;13.30;84.70;;;;;;5036958;28;20042;-65
2021/06/02 02:05:04;;;;;;;7.13;5.78;;;13.30;84.90;;;;;;4968420;28;20046;-65
2021/06/02 02:07:56;;;;;;;7.15;5.78;;;13.20;84.80;;;;;;5028153;28;20531;-65
2021/06/02 02:10:25;;;;;;;7.25;5.38;;;13.20;85.00;;;;;;5028067;28;20037;-65
2021/06/02 02:13:08;;;;;;;10.18;5.68;;;13.20;84.90;;;;;;5030456;28;20059;-65
2021/06/02 02:16:05;;;;;;;7.03;5.90;;;13.20;85.00;;;;;;5030021;28;20257;-65
2021/06/02 02:18:51;;;;;;;6.05;5.07;;;13.10;85.10;;;;;;5030117;28;20061;-65
2021/06/02 02:21:42;;;;;;;8.90;5.88;;;13.10;85.70;;;;;;5030830;28;20052;-65
2021/06/02 02:24:10;;;;;;;9.15;5.68;;;13.10;85.40;;;;;;5026952;28;20052;-65
2021/06/02 02:27:21;;;;;;;6.78;5.07;;;13.00;85.50;;;;;;5032490;28;20030;-65
2021/06/02 02:30:18;;;;;;;7.68;5.70;;;13.00;86.20;;;;;;5025146;28;20133;-65
2021/06/02 02:33:02;;;;;;;9.73;5.43;;;12.90;86.20;;;;;;5029537;28;20453;-65
2021/06/02 02:35:46;;;;;;;6.95;4.78;;;12.90;85.80;;;;;;5025330;28;20120;-65
2021/06/02 02:38:49;;;;;;;6.93;5.80;;;12.90;85.80;;;;;;5031175;28;20041;-65
2021/06/02 02:41:20;;;;;;;9.43;5.50;;;12.90;85.70;;;;;;5022373;28;20033;-65
2021/06/02 02:44:13;;;;;;;7.10;5.50;;;12.80;85.60;;;;;;5032213;28;20091;-65
2021/06/02 02:47:00;;;;;;;8.43;5.13;;;12.80;85.90;;;;;;5025831;28;20438;-65
2021/06/02 02:49:40;;;;;;;6.55;5.07;;;12.80;86.10;;;;;;5030077;28;20029;-65
2021/06/02 02:52:46;;;;;;;7.50;5.82;;;12.80;86.50;;;;;;5035318;28;20045;-65
2021/06/02 02:55:26;;;;;;;;;;;12.70;87.00;;;;;;5025768;28;20037;-65
2021/06/02 02:58:18;;;;;;;8.95;6.15;;;12.70;87.50;;;;;;5029842;28;20369;-65
2021/06/02 03:00:59;;;;;;;6.35;5.28;;;12.60;86.80;;;;;;5027163;28;20048;-65
2021/06/02 03:03:30;;;;;;;8.18;5.88;;;12.60;86.90;;;;;;5028861;28;20064;-65
2021/06/02 03:06:14;;;;;;;9.57;5.78;;;12.50;86.90;;;;;;5026059;28;20051;-65
2021/06/02 03:09:06;;;;;;;7.78;5.35;;;12.50;86.70;;;;;;5036191;28;20044;-65
2021/06/02 03:11:41;;;;;;;6.47;5.10;;;12.50;86.60;;;;;;5021953;28;20568;-65
2021/06/02 03:14:15;;;;;;;8.23;5.82;;;12.50;86.70;;;;;;5029087;28;20327;-65
2021/06/02 03:16:47;;;;;;;7.20;5.65;;;12.50;86.60;;;;;;5030434;28;20486;-65
2021/06/02 03:19:17;;;;;;;8.65;5.10;;;12.40;86.80;;;;;;5040508;28;20127;-65
2021/06/02 03:21:55;;;;;;;6.50;5.32;;;12.40;87.00;;;;;;5017392;28;20029;-65
2021/06/02 03:24:53;;;;;;;11.30;5.32;;;12.40;87.20;;;;;;5028940;28;20130;-65
2021/06/02 03:27:48;;;;;;;7.50;5.32;;;12.30;87.50;;;;;;4993267;28;20470;-65
2021/06/02 03:30:34;;;;;;;6.60;5.20;;;12.40;87.80;;;;;;4997255;28;20132;-65
2021/06/02 03:33:16;;;;;;;7.20;5.70;;;12.30;87.60;;;;;;5025111;28;20045;-64
2021/06/02 03:35:58;;;;;;;7.18;5.90;;;12.30;87.90;;;;;;5034251;28;20096;-64
2021/06/02 03:38:58;;;;;;;9.25;5.82;;;12.30;88.20;;;;;;5019819;28;20034;-64
2021/06/02 03:41:42;;;;;;;6.53;5.55;;;12.30;89.00;;;;;;5017844;28;20041;-64
2021/06/02 03:44:11;;;;;;;11.40;5.50;;;12.30;88.60;;;;;;5026831;28;20030;-64
2021/06/02 03:46:45;;;;;;;9.00;6.47;;;12.40;88.60;;;;;;5024178;28;20057;-64
2021/06/02 03:49:15;;;;;;;7.60;6.13;;;12.40;89.10;;;;;;5022317;28;20037;-64
2021/06/02 03:52:03;;;;;;;6.57;5.43;;;12.40;88.90;;;;;;5030591;28;20072;-64
2021/06/02 03:54:40;;;;;;;8.93;6.07;;;12.50;89.40;;;;;;5028424;28;20050;-64
2021/06/02 03:57:28;;;;;;;7.57;5.72;;;12.50;89.60;;;;;;5023750;28;20041;-64
2021/06/02 04:00:12;;;;;;;8.73;6.30;;;12.50;89.40;;;;;;5054486;28;20045;-64
2021/06/02 04:03:11;;;;;;;10.47;6.40;;;12.60;89.20;;;;;;5026330;28;20037;-64
2021/06/02 04:06:03;;;;;;;10.13;6.32;;;12.60;89.30;;;;;;5031303;28;20037;-64
2021/06/02 04:08:38;;;;;;;8.73;6.43;;;12.70;89.10;;;;;;5028864;28;20472;-65
2021/06/02 04:11:09;;;;;;;9.60;6.95;;;12.80;89.10;;;;;;5026429;28;20492;-65
2021/06/02 04:13:43;;;;;;;8.02;6.15;;;12.90;89.10;;;;;;5022205;28;20121;-65
2021/06/02 04:16:14;;;;;;;9.23;6.75;;;13.00;88.80;;;;;;5026734;28;20033;-65
2021/06/02 04:18:45;;;;;;;9.30;6.25;;;13.00;88.90;;;;;;5028326;28;20361;-65
2021/06/02 04:21:16;;;;;;;6.82;6.13;;;13.00;88.90;;;;;;5028246;28;20124;-65
2021/06/02 04:23:44;;;;;;;9.48;6.80;;;13.10;88.90;;;;;;5023498;28;20043;-65
2021/06/02 04:26:11;;;;;;;9.15;5.90;;;13.20;88.70;;;;;;5028563;28;20486;-65
2021/06/02 04:28:38;;;;;;;7.25;6.25;;;13.40;88.40;;;;;;5023897;28;20528;-65
2021/06/02 04:31:07;;;;;;;8.05;6.18;;;13.40;88.00;;;;;;5031391;28;20038;-65
2021/06/02 04:33:35;;;;;;;8.93;6.05;;;13.60;88.00;;;;;;5028442;28;20091;-65
2021/06/02 04:36:02;;;;;;;7.25;6.03;;;13.70;88.30;;;;;;5024824;28;20042;-65
2021/06/02 04:38:30;;;;;;;7.43;6.68;;;13.90;87.50;;;;;;5029146;28;20092;-65
2021/06/02 04:40:59;;;;;;;9.65;6.43;;;14.00;86.80;;;;;;5022348;28;20486;-65
2021/06/02 04:43:25;;;;;;;9.23;6.45;;;14.00;85.90;;;;;;5030710;28;20116;-65
2021/06/02 04:46:00;;;;;;;6.93;5.72;;;14.20;85.60;;;;;;5018431;28;20029;-65
2021/06/02 04:48:27;;;;;;;8.55;6.63;;;14.20;85.40;;;;;;5027596;28;20065;-65
2021/06/02 04:51:05;;;;;;;8.88;6.30;;;14.30;85.50;;;;;;5033041;28;20421;-65
2021/06/02 04:53:39;;;;;;;8.30;6.47;;;14.50;84.80;;;;;;5032381;28;20472;-65
2021/06/02 04:56:43;;;;;;;10.93;6.93;;;14.80;83.00;;;;;;5027599;28;20033;-65
2021/06/02 04:59:17;;;;;;;7.45;5.65;;;15.30;82.10;;;;;;5022415;28;20069;-65
2021/06/02 05:02:00;;;;;;;7.72;6.43;;;15.60;80.80;;;;;;5023032;28;20048;-65
2021/06/02 05:04:54;;;;;;;8.03;6.10;;;15.80;80.20;;;;;;5041790;28;20041;-65
2021/06/02 05:07:38;;;;;;;6.43;5.57;;;15.90;79.20;;;;;;5029678;28;20052;-65
2021/06/02 05:10:25;;;;;;;12.95;6.72;;;16.00;78.90;;;;;;5018176;28;20037;-65
2021/06/02 05:13:20;;;;;;;6.80;5.13;;;16.20;77.60;;;;;;5033345;28;20068;-65
2021/06/02 05:16:00;;;;;;;19.15;13.57;;;16.60;76.40;;;;;;5005490;28;20596;-66
2021/06/02 05:18:52;;;;;;;9.43;5.97;;;16.60;75.50;;;;;;5035918;28;20060;-66
2021/06/02 05:22:05;;;;;;;8.52;5.50;;;16.50;76.20;;;;;;5024140;28;20084;-66
2021/06/02 05:24:52;;;;;;;7.35;5.72;;;16.50;75.70;;;;;;5035240;28;20029;-66
2021/06/02 05:27:46;;;;;;;7.45;5.70;;;16.40;76.20;;;;;;5027134;28;20045;-66
2021/06/02 05:30:34;;;;;;;6.50;5.80;;;16.40;76.50;;;;;;5023361;28;20786;-65
2021/06/02 05:33:33;;;;;;;7.90;5.80;;;16.50;76.80;;;;;;5027786;28;20130;-65
2021/06/02 05:36:17;;;;;;;7.90;5.57;;;16.60;75.50;;;;;;5021711;28;20581;-65
2021/06/02 05:39:01;;;;;;;7.18;5.68;;;16.60;76.00;;;;;;5032363;28;20374;-65
2021/06/02 05:41:56;;;;;;;6.13;5.07;;;16.80;75.10;;;;;;5022999;28;20049;-67
2021/06/02 05:44:56;;;;;;;7.43;5.80;;;16.90;72.30;;;;;;5030170;28;20488;-66
2021/06/02 05:47:56;;;;;;;8.43;5.15;;;16.90;69.80;;;;;;5022951;28;20448;-65
2021/06/02 05:50:53;;;;;;;7.13;5.55;;;17.00;68.40;;;;;;5023738;28;20033;-67
2021/06/02 05:53:34;;;;;;;5.78;4.90;;;17.00;69.00;;;;;;5024429;28;20046;-66
2021/06/02 05:56:20;;;;;;;6.18;4.68;;;17.10;70.20;;;;;;5034391;28;20057;-66
2021/06/02 05:59:04;;;;;;;6.50;5.00;;;17.20;67.10;;;;;;5024562;28;20053;-66
2021/06/02 06:01:57;;;;;;;7.17;5.83;;;17.20;66.40;;;;;;5038211;28;20036;-67
2021/06/02 06:04:54;;;;;;;6.50;4.90;;;17.20;66.00;;;;;;5035946;28;20084;-66
2021/06/02 06:08:04;;;;;;;5.32;4.82;;;17.20;64.00;;;;;;5021271;28;20469;-66
2021/06/02 06:11:00;;;;;;;7.50;5.30;;;17.20;65.50;;;;;;5028728;28;20060;-66
2021/06/02 06:13:50;;;;;;;6.32;4.95;;;17.20;64.30;;;;;;5023058;28;20107;-65
2021/06/02 06:16:42;;;;;;;5.28;4.72;;;17.30;64.10;;;;;;5027504;28;20440;-66
2021/06/02 06:19:34;;;;;;;6.45;5.47;;;17.30;66.10;;;;;;5028001;28;20070;-66
2021/06/02 06:22:19;;;;;;;7.68;5.80;;;17.40;66.20;;;;;;5038043;28;20573;-66
2021/06/02 06:25:03;;;;;;;7.00;5.00;;;17.50;66.00;;;;;;5023042;28;20483;-66
2021/06/02 06:27:40;;;;;;;8.98;4.95;;;17.60;64.90;;;;;;5029415;28;20044;-66
2021/06/02 06:30:10;;;;;;;7.50;5.13;;;17.60;64.90;;;;;;5027794;28;20042;-66
2021/06/02 06:32:40;;;;;;;10.85;6.85;;;17.70;63.80;;;;;;5043179;28;20175;-66
2021/06/02 06:35:08;;;;;;;8.30;6.50;;;17.80;64.50;;;;;;5024134;28;20054;-66
2021/06/02 06:37:39;;;;;;;9.05;5.35;;;17.80;63.50;;;;;;5029701;28;20088;-66
2021/06/02 06:40:09;;;;;;;8.20;5.25;;;17.90;62.50;;;;;;5031152;28;20044;-66
2021/06/02 06:42:43;;;;;;;7.15;5.38;;;17.80;63.20;;;;;;5044171;28;20079;-67
2021/06/02 06:45:09;;;;;;;;;;;17.90;63.40;;;;;;5022033;28;20071;-66
2021/06/02 06:47:37;;;;;;;7.00;5.13;;;17.80;65.60;;;;;;5028861;28;19921;-67
2021/06/02 06:50:08;;;;;;;7.32;5.45;;;17.80;64.60;;;;;;5023216;28;20393;-67
2021/06/02 06:52:34;;;;;;;7.15;5.70;;;17.70;64.60;;;;;;5031232;28;20365;-67
2021/06/02 06:55:01;;;;;;;10.80;5.13;;;17.60;64.10;;;;;;5022301;28;20060;-66
2021/06/02 06:57:29;;;;;;;8.55;6.82;;;17.60;65.00;;;;;;5024802;28;20030;-65
2021/06/02 06:59:55;;;;;;;8.05;5.93;;;17.70;64.70;;;;;;5022897;28;20560;-65
2021/06/02 07:02:21;;;;;;;7.10;5.30;;;17.70;65.80;;;;;;5023151;28;20095;-65
2021/06/02 07:04:48;;;;;;;5.50;4.60;;;17.70;65.40;;;;;;5022166;28;20037;-65
2021/06/02 07:07:15;;;;;;;9.20;5.43;;;17.80;66.50;;;;;;5031866;28;20052;-65
2021/06/02 07:09:41;;;;;;;5.75;4.97;;;17.80;67.00;;;;;;5024734;28;20048;-65
2021/06/02 07:12:07;;;;;;;5.70;4.68;;;17.80;63.30;;;;;;5029238;28;20041;-65
2021/06/02 07:14:37;;;;;;;6.25;4.40;;;17.70;63.90;;;;;;5025556;28;20052;-65
2021/06/02 07:17:05;;;;;;;5.72;4.47;;;17.80;65.10;;;;;;5027983;28;20361;-66
2021/06/02 07:19:38;;;;;;;5.90;4.78;;;17.90;65.70;;;;;;5030543;28;20029;-66
2021/06/02 07:22:05;;;;;;;5.88;4.53;;;18.10;65.30;;;;;;5018484;28;20111;-66
2021/06/02 07:24:32;;;;;;;5.30;3.97;;;18.20;63.80;;;;;;5027715;28;20041;-66
2021/06/02 07:27:00;;;;;;;7.22;4.40;;;18.20;63.00;;;;;;5028317;28;20050;-66
2021/06/02 07:29:26;;;;;;;5.82;4.00;;;18.30;62.00;;;;;;5033475;28;20033;-66
2021/06/02 07:31:53;;;;;;;8.25;5.63;;;18.30;61.90;;;;;;5021382;28;20497;-67
2021/06/02 07:34:22;;;;;;;7.90;5.00;;;18.40;61.70;;;;;;5031762;28;20056;-67
2021/06/02 07:36:49;;;;;;;6.07;4.75;;;18.50;61.40;;;;;;5030986;28;20076;-67
2021/06/02 07:39:17;;;;;;;6.70;4.47;;;18.80;60.70;;;;;;5033554;28;20136;-67
2021/06/02 07:41:42;;;;;;;6.50;4.75;;;19.00;60.40;;;;;;5028636;28;20041;-67
2021/06/02 07:44:08;;;;;;;6.63;4.80;;;19.10;60.50;;;;;;5039564;28;20124;-66
2021/06/02 07:46:34;;;;;;;7.63;4.88;;;19.10;60.80;;;;;;5032799;28;20041;-67
2021/06/02 07:49:02;;;;;;;7.40;5.38;;;19.10;59.60;;;;;;5025393;28;20041;-64
2021/06/02 07:51:27;;;;;;;7.35;4.93;;;18.90;58.90;;;;;;5020898;28;20049;-64
2021/06/02 07:53:53;;;;;;;10.32;7.53;;;19.00;59.30;;;;;;5031010;28;20049;-65
2021/06/02 07:56:19;;;;;;;7.15;4.85;;;19.10;59.20;;;;;;5021947;28;20449;-65
2021/06/02 07:58:45;;;;;;;5.85;4.55;;;19.30;61.50;;;;;;5025746;28;20037;-65
2021/06/02 08:01:11;;;;;;;5.10;4.25;;;19.50;60.50;;;;;;5028887;28;20037;-65
2021/06/02 08:03:40;;;;;;;6.15;4.60;;;19.70;59.10;;;;;;5021498;28;20413;-65
2021/06/02 08:06:06;;;;;;;5.55;3.97;;;19.80;58.80;;;;;;5023367;28;20179;-65
2021/06/02 08:08:32;;;;;;;7.38;3.97;;;20.00;57.20;;;;;;5023982;28;20038;-65
2021/06/02 08:10:58;;;;;;;5.10;3.95;;;20.20;56.10;;;;;;5025487;28;20035;-65
2021/06/02 08:13:24;;;;;;;3.92;3.40;;;20.30;55.10;;;;;;5029451;28;20132;-65
2021/06/02 08:15:49;;;;;;;4.40;3.97;;;20.50;55.10;;;;;;5025351;28;20060;-66
2021/06/02 08:18:15;;;;;;;5.38;4.20;;;20.60;52.60;;;;;;5026486;28;20519;-66
2021/06/02 08:20:42;;;;;;;4.63;3.30;;;20.70;51.60;;;;;;5030797;28;20500;-66
2021/06/02 08:23:08;;;;;;;4.18;3.33;;;20.90;52.50;;;;;;5018709;28;20486;-66
2021/06/02 08:25:34;;;;;;;4.95;3.72;;;21.00;50.70;;;;;;5025708;28;20044;-66
2021/06/02 08:28:00;;;;;;;5.53;3.63;;;21.20;50.80;;;;;;5023939;28;20045;-66
2021/06/02 08:30:27;;;;;;;7.03;5.25;;;21.40;50.50;;;;;;5025591;28;20405;-66
2021/06/02 08:32:53;;;;;;;6.53;4.10;;;21.60;50.90;;;;;;5020375;28;20396;-66
2021/06/02 08:35:19;;;;;;;7.90;4.40;;;21.70;49.40;;;;;;5027450;28;20556;-66
2021/06/02 08:37:46;;;;;;;6.60;4.28;;;21.80;49.50;;;;;;5031683;28;20030;-66
2021/06/02 08:40:13;;;;;;;5.85;4.03;;;21.90;49.60;;;;;;5020312;28;20041;-66
2021/06/02 08:42:44;;;;;;;6.07;3.60;;;22.20;50.20;;;;;;5026744;28;20041;-66
2021/06/02 08:45:11;;;;;;;6.45;4.00;;;22.30;50.00;;;;;;5032236;28;20487;-66
2021/06/02 08:47:37;;;;;;;5.15;3.85;;;22.40;50.20;;;;;;5027990;28;20034;-66
2021/06/02 08:50:08;;;;;;;6.03;3.38;;;22.40;49.60;;;;;;5024780;28;20095;-66
2021/06/02 08:52:38;;;;;;;3.58;2.17;;;22.50;49.80;;;;;;5033766;28;20378;-66
2021/06/02 08:55:09;;;;;;;3.75;2.30;;;22.50;48.80;;;;;;5025256;28;20044;-66
2021/06/02 08:57:43;;;;;;;5.20;2.50;;;22.60;47.80;;;;;;5037092;28;20043;-66
2021/06/02 09:00:12;;;;;;;6.97;2.55;;;22.80;45.90;;;;;;5029658;28;20037;-66
2021/06/02 09:02:39;;;;;;;4.88;2.47;;;22.90;44.50;;;;;;5034314;28;20113;-66
2021/06/02 09:05:06;;;;;;;5.97;2.75;;;22.90;45.70;;;;;;5027697;28;20176;-66
2021/06/02 09:07:33;;;;;;;4.35;2.67;;;23.20;45.90;;;;;;5026921;28;20042;-66
2021/06/02 09:10:04;;;;;;;3.75;2.30;;;23.30;45.10;;;;;;5025014;28;20084;-66
2021/06/02 09:12:39;;;;;;;3.03;2.22;;;23.40;44.90;;;;;;5033456;28;20037;-66
2021/06/02 09:15:10;;;;;;;3.88;1.95;;;23.50;44.40;;;;;;5028217;28;20037;-67
2021/06/02 09:17:56;;;;;;;4.65;1.95;;;23.70;42.90;;;;;;5032950;28;20041;-66
2021/06/02 09:20:42;;;;;;;3.67;1.50;;;23.80;40.30;;;;;;5032666;28;20116;-68
2021/06/02 09:23:38;;;;;;;2.78;1.30;;;24.00;41.10;;;;;;5027146;28;20044;-69
2021/06/02 09:26:10;;;;;;;6.88;2.10;;;24.20;40.90;;;;;;5016236;28;20421;-69
2021/06/02 09:28:59;;;;;;;5.55;2.22;;;24.50;42.60;;;;;;5031274;28;20171;-69
2021/06/02 09:31:26;;;;;;;3.83;1.80;;;24.50;39.10;;;;;;5026033;28;20060;-69
2021/06/02 09:34:00;;;;;;;5.22;1.73;;;24.70;40.70;;;;;;5030172;28;20056;-67
2021/06/02 09:36:32;;;;;;;3.67;2.00;;;24.70;39.40;;;;;;5027225;28;20424;-68
2021/06/02 09:39:02;;;;;;;3.70;1.90;;;24.80;39.70;;;;;;5030426;28;20067;-68
2021/06/02 09:41:29;;;;;;;2.92;1.85;;;25.10;41.10;;;;;;5028068;28;20056;-65
2021/06/02 09:43:56;;;;;;;3.42;1.60;;;24.90;39.20;;;;;;5034829;28;20037;-65
2021/06/02 09:46:22;;;;;;;2.70;1.52;;;25.10;38.80;;;;;;5022269;28;20133;-66
2021/06/02 09:48:48;;;;;;;3.83;1.90;;;25.20;38.00;;;;;;5032033;28;20116;-66
2021/06/02 09:51:37;;;;;;;3.58;1.60;;;25.40;37.90;;;;;;5024098;28;20064;-67
2021/06/02 09:54:05;;;;;;;4.15;1.48;;;25.40;36.90;;;;;;5023511;28;20053;-66
2021/06/02 09:56:43;;;;;;;4.22;1.90;;;25.50;38.60;;;;;;5026972;28;20092;-66
2021/06/02 09:59:11;;;;;;;2.05;1.40;;;25.70;37.90;;;;;;5033895;28;20042;-66
2021/06/02 10:02:15;;;;;;;1.75;1.40;;;25.90;39.50;;;;;;5026776;28;20068;-66
2021/06/02 10:04:42;;;;;;;;;;;26.20;36.40;;;;;;5009294;28;20038;-66
2021/06/02 10:07:21;;;;;;;5.25;1.90;;;26.40;35.50;;;;;;5018900;28;19921;-66
2021/06/02 10:09:47;;;;;;;2.20;1.50;;;26.60;35.30;;;;;;5045066;28;20045;-66
2021/06/02 10:12:14;;;;;;;3.75;2.10;;;26.80;36.70;;;;;;5018250;28;20033;-66
2021/06/02 10:14:52;;;;;;;4.30;2.08;;;26.80;36.60;;;;;;5031996;28;20409;-67
2021/06/02 10:17:25;;;;;;;3.40;1.92;;;26.40;35.90;;;;;;5023794;28;20477;-67
2021/06/02 10:19:52;;;;;;;2.78;2.15;;;26.60;36.50;;;;;;5043115;28;20049;-72
2021/06/02 10:22:36;;;;;;;2.67;1.75;;;26.50;37.60;;;;;;5021985;28;20103;-71
2021/06/02 10:25:10;;;;;;;3.88;2.00;;;26.60;35.50;;;;;;5033331;28;20067;-71
2021/06/02 10:27:36;;;;;;;3.10;1.70;;;26.80;37.50;;;;;;5031779;28;20079;-71
2021/06/02 10:30:06;;;;;;;4.68;1.98;;;27.00;37.10;;;;;;5026722;28;20081;-71
2021/06/02 10:32:33;;;;;;;4.47;1.55;;;26.80;37.40;;;;;;5030720;28;20115;-71
2021/06/02 10:34:59;;;;;;;3.78;2.00;;;26.70;38.20;;;;;;5036608;28;20073;-71
2021/06/02 10:37:25;;;;;;;2.40;1.98;;;26.70;35.50;;;;;;5032661;28;20064;-71
2021/06/02 10:40:12;;;;;;;3.70;2.05;;;27.00;36.60;;;;;;5024878;28;20045;-71
2021/06/02 10:42:46;;;;;;;4.03;2.40;;;27.50;36.80;;;;;;5033450;28;20041;-71
2021/06/02 10:45:23;;;;;;;5.53;2.13;;;27.80;36.10;;;;;;5032123;28;20435;-71
2021/06/02 10:48:00;;;;;;;4.20;2.28;;;27.90;34.50;;;;;;5023541;28;20052;-71
2021/06/02 10:50:44;;;;;;;4.85;1.73;;;28.00;35.90;;;;;;5030805;28;20041;-71
2021/06/02 10:53:36;;;;;;;4.47;1.70;;;28.00;34.30;;;;;;5026292;28;20057;-71
2021/06/02 10:56:02;;;;;;;2.70;1.70;;;27.60;35.10;;;;;;5028353;28;20504;-71
2021/06/02 10:58:32;;;;;;;3.50;1.85;;;27.40;37.60;;;;;;5022298;28;20113;-71
2021/06/02 11:01:04;;;;;;;5.32;1.80;;;27.50;37.40;;;;;;5024440;28;20040;-71
2021/06/02 11:03:29;;;;;;;2.50;1.77;;;27.70;38.50;;;;;;5028501;28;20108;-71
2021/06/02 11:06:19;;;;;;;4.30;1.92;;;27.80;37.30;;;;;;5026913;28;20045;-71
2021/06/02 11:08:51;;;;;;;3.38;2.00;;;27.90;37.10;;;;;;5009415;28;20045;-71
2021/06/02 11:11:27;;;;;;;3.85;2.28;;;28.20;36.90;;;;;;5031078;28;20485;-69
2021/06/02 11:14:19;;;;;;;5.03;2.03;;;28.40;35.80;;;;;;5037097;28;20045;-69
2021/06/02 11:16:46;;;;;;;4.30;2.40;;;28.40;36.80;;;;;;5031814;28;20318;-69
2021/06/02 11:19:12;;;;;;;3.70;2.08;;;28.30;36.60;;;;;;5021004;28;20111;-69
2021/06/02 11:21:53;;;;;;;4.35;2.40;;;28.40;38.70;;;;;;5027939;28;20041;-69
2021/06/02 11:24:34;;;;;;;3.33;2.33;;;28.80;37.00;;;;;;5027573;28;20096;-71
2021/06/02 11:27:16;;;;;;;4.32;2.60;;;29.00;36.50;;;;;;5030957;28;20516;-69
2021/06/02 11:29:48;;;;;;;3.20;2.40;;;29.30;34.60;;;;;;5026602;28;20045;-69
2021/06/02 11:32:18;;;;;;;5.70;2.65;;;29.20;34.90;;;;;;5026297;28;20312;-70
2021/06/02 11:34:54;;;;;;;7.13;2.85;;;29.00;34.50;;;;;;5027838;28;20161;-70
2021/06/02 11:37:23;;;;;;;4.55;2.50;;;28.70;34.60;;;;;;5029040;28;20390;-70
2021/06/02 11:39:54;;;;;;;7.25;3.00;;;28.60;35.80;;;;;;5036539;28;20445;-70
2021/06/02 11:42:56;;;;;;;4.07;3.03;;;28.70;35.50;;;;;;5020174;28;20037;-70
2021/06/02 11:45:22;;;;;;;5.68;3.00;;;28.40;35.60;;;;;;4940176;29;20061;-70
2021/06/02 11:47:50;;;;;;;4.30;2.80;;;28.30;36.10;;;;;;5011711;28;20363;-70
2021/06/02 11:50:21;;;;;;;4.20;2.80;;;28.30;38.00;;;;;;5024909;28;20064;-70
2021/06/02 11:53:01;;;;;;;4.53;2.88;;;28.40;37.00;;;;;;5023406;28;20112;-70
2021/06/02 11:55:29;;;;;;;3.40;2.80;;;28.60;37.90;;;;;;5027904;28;20427;-70
2021/06/02 11:57:55;;;;;;;4.88;2.88;;;28.60;36.90;;;;;;5028389;28;20545;-69
2021/06/02 12:00:24;;;;;;;5.68;3.40;;;28.60;36.10;;;;;;5042274;28;20496;-69
2021/06/02 12:03:11;;;;;;;4.28;2.60;;;28.60;36.30;;;;;;5018673;28;20041;-70
2021/06/02 12:05:42;;;;;;;4.07;2.90;;;28.70;39.40;;;;;;5032629;28;20088;-70
2021/06/02 12:08:12;;;;;;;4.20;2.60;;;28.80;36.50;;;;;;5030450;28;20133;-70
2021/06/02 12:10:49;;;;;;;4.97;3.00;;;28.70;37.30;;;;;;5029649;28;20613;-70
2021/06/02 12:13:14;;;;;;;4.30;2.90;;;28.90;37.00;;;;;;5025979;28;20124;-71
2021/06/02 12:15:45;;;;;;;7.60;3.67;;;29.10;37.10;;;;;;5027897;28;20450;-71
2021/06/02 12:18:11;;;;;;;5.15;3.47;;;29.30;36.70;;;;;;5022409;28;20049;-71
2021/06/02 12:20:37;;;;;;;5.20;3.22;;;28.90;36.10;;;;;;5028488;28;20112;-71
2021/06/02 12:23:05;;;;;;;5.15;3.08;;;29.20;36.40;;;;;;5021511;28;20239;-71
2021/06/02 12:25:35;;;;;;;6.05;3.00;;;29.50;36.20;;;;;;5034831;28;20033;-71
2021/06/02 12:28:04;;;;;;;4.07;3.17;;;29.60;35.80;;;;;;5018902;28;20509;-71
2021/06/02 12:30:34;;;;;;;4.55;3.30;;;29.60;37.10;;;;;;5035356;28;20102;-71
2021/06/02 12:33:05;;;;;;;3.63;2.88;;;29.60;37.10;;;;;;5021608;28;20052;-71
2021/06/02 12:35:42;;;;;;;4.72;2.85;;;29.80;37.90;;;;;;5027231;28;20037;-71
2021/06/02 12:38:22;;;;;;;4.25;2.97;;;30.10;37.00;;;;;;5022440;28;20034;-71
2021/06/02 12:40:50;;;;;;;6.60;3.40;;;30.30;36.50;;;;;;5029273;28;20040;-71
2021/06/02 12:43:22;;;;;;;4.35;3.13;;;30.20;35.20;;;;;;5021175;28;20044;-71
2021/06/02 12:45:49;;;;;;;4.00;3.17;;;30.20;36.10;;;;;;5026792;28;20053;-70
2021/06/02 12:48:18;;;;;;;4.57;3.22;;;29.80;34.70;;;;;;5030896;28;20381;-70
2021/06/02 12:50:49;;;;;;;4.53;2.50;;;29.50;37.70;;;;;;5031455;28;20044;-70
2021/06/02 12:53:17;;;;;;;4.82;2.97;;;29.30;37.00;;;;;;5025201;28;20088;-71
2021/06/02 12:55:49;;;;;;;3.97;2.65;;;29.40;37.90;;;;;;5035645;28;20037;-71
2021/06/02 12:58:20;;;;;;;3.30;2.90;;;29.60;39.20;;;;;;5023398;28;20099;-71
2021/06/02 13:00:50;;;;;;;4.68;3.50;;;29.80;37.20;;;;;;5032471;28;20128;-71
2021/06/02 13:03:21;;;;;;;4.78;2.90;;;29.80;35.20;;;;;;5017990;28;20037;-71
2021/06/02 13:05:49;;;;;;;4.65;2.90;;;29.70;36.50;;;;;;5035857;28;20053;-71
2021/06/02 13:08:16;;;;;;;4.78;3.13;;;29.60;36.70;;;;;;5029938;28;20041;-72
2021/06/02 13:10:46;;;;;;;4.90;2.97;;;29.50;35.80;;;;;;5034947;28;20053;-71
2021/06/02 13:13:14;;;;;;;4.80;2.92;;;29.30;35.60;;;;;;5025055;28;20093;-70
2021/06/02 13:15:42;;;;;;;3.45;2.97;;;29.20;37.40;;;;;;5025366;28;20049;-70
2021/06/02 13:18:26;;;;;;;3.72;2.58;;;29.30;38.20;;;;;;5031787;28;20120;-69
2021/06/02 13:20:53;;;;;;;4.18;2.88;;;29.50;36.40;;;;;;5023446;28;20477;-69
2021/06/02 13:23:25;;;;;;;4.78;3.40;;;29.50;36.90;;;;;;5026280;28;20136;-68
2021/06/02 13:26:01;;;;;;;5.53;2.72;;;29.60;35.30;;;;;;5025576;28;20439;-68
2021/06/02 13:28:29;;;;;;;4.57;2.78;;;29.50;35.50;;;;;;5032527;28;20049;-66
2021/06/02 13:30:58;;;;;;;4.82;3.20;;;29.20;39.00;;;;;;5024545;28;20493;-67